createdAt,value
2022-08-16T00:00:22.572Z,21.50
2022-08-16T00:02:51.949Z,21.40
2022-08-16T00:05:22.814Z,21.30
2022-08-16T00:07:56.178Z,21.30
2022-08-16T00:10:26.877Z,21.30
2022-08-16T00:12:55.547Z,21.30
2022-08-16T00:15:50.947Z,21.20
2022-08-16T00:18:22.370Z,21.20
2022-08-16T00:20:56.492Z,21.20
2022-08-16T00:23:34.712Z,21.20
2022-08-16T00:26:33.676Z,21.20
2022-08-16T00:28:54.926Z,21.10
2022-08-16T00:31:24.467Z,21.10
2022-08-16T00:33:51.439Z,21.10
2022-08-16T00:36:19.491Z,21.10
2022-08-16T00:38:47.181Z,21.00
2022-08-16T00:41:17.382Z,21.00
2022-08-16T00:43:44.477Z,20.90
2022-08-16T00:46:35.641Z,20.90
2022-08-16T00:49:06.363Z,20.90
2022-08-16T00:51:33.680Z,20.80
2022-08-16T00:54:00.889Z,20.80
2022-08-16T00:56:58.098Z,20.60
2022-08-16T00:59:27.413Z,20.60
2022-08-16T01:01:57.207Z,20.60
2022-08-16T01:04:30.962Z,20.50
2022-08-16T01:07:02.242Z,20.50
2022-08-16T01:09:37.242Z,20.40
2022-08-16T01:12:08.623Z,20.40
2022-08-16T01:14:44.046Z,20.30
2022-08-16T01:17:18.954Z,20.30
2022-08-16T01:19:52.469Z,20.40
2022-08-16T01:22:43.236Z,20.30
2022-08-16T01:25:34.380Z,20.40
2022-08-16T01:28:19.777Z,20.40
2022-08-16T01:30:54.158Z,20.40
2022-08-16T01:33:33.512Z,20.20
2022-08-16T01:36:09.333Z,20.20
2022-08-16T01:38:47.031Z,20.20
2022-08-16T01:41:30.658Z,20.10
2022-08-16T01:44:01.102Z,20.10
2022-08-16T01:46:39.238Z,20.10
2022-08-16T01:49:18.625Z,20.10
2022-08-16T01:51:50.678Z,20.10
2022-08-16T01:54:17.565Z,20.10
2022-08-16T01:57:01.360Z,20.10
2022-08-16T01:59:29.761Z,20.00
2022-08-16T02:02:00.166Z,20.00
2022-08-16T02:04:48.835Z,20.00
2022-08-16T02:07:18.270Z,19.90
2022-08-16T02:09:57.030Z,19.90
2022-08-16T02:12:49.742Z,19.90
2022-08-16T02:15:25.242Z,19.90
2022-08-16T02:18:01.051Z,19.80
2022-08-16T02:20:31.285Z,19.80
2022-08-16T02:22:59.799Z,19.80
2022-08-16T02:25:51.016Z,19.70
2022-08-16T02:28:19.353Z,19.70
2022-08-16T02:30:50.610Z,19.70
2022-08-16T02:33:18.763Z,19.70
2022-08-16T02:35:54.607Z,19.70
2022-08-16T02:38:28.369Z,19.60
2022-08-16T02:40:56.519Z,19.70
2022-08-16T02:43:29.085Z,19.60
2022-08-16T02:46:00.315Z,19.60
2022-08-16T02:48:30.840Z,19.50
2022-08-16T02:51:11.086Z,19.50
2022-08-16T02:53:43.213Z,19.30
2022-08-16T02:56:11.172Z,19.40
2022-08-16T02:58:41.549Z,19.20
2022-08-16T03:01:15.252Z,19.10
2022-08-16T03:04:39.480Z,19.10
2022-08-16T03:06:43.367Z,19.10
2022-08-16T03:09:13.861Z,19.00
2022-08-16T03:11:42.217Z,18.80
2022-08-16T03:14:11.659Z,18.70
2022-08-16T03:16:58.648Z,18.70
2022-08-16T03:19:47.491Z,18.60
2022-08-16T03:22:29.166Z,18.70
2022-08-16T03:25:07.517Z,18.70
2022-08-16T03:27:39.100Z,18.80
2022-08-16T03:30:17.532Z,18.80
2022-08-16T03:32:51.532Z,18.80
2022-08-16T03:35:33.008Z,18.80
2022-08-16T03:38:04.635Z,18.90
2022-08-16T03:40:51.775Z,18.90
2022-08-16T03:43:20.395Z,18.90
2022-08-16T03:45:52.435Z,18.80
2022-08-16T03:48:36.079Z,18.60
2022-08-16T03:51:07.940Z,18.60
2022-08-16T03:53:37.778Z,18.60
2022-08-16T03:56:07.314Z,18.60
2022-08-16T03:58:39.236Z,18.60
2022-08-16T04:01:13.905Z,18.60
2022-08-16T04:03:45.509Z,18.60
2022-08-16T04:06:12.782Z,18.60
2022-08-16T04:08:44.056Z,18.60
2022-08-16T04:11:12.062Z,18.60
2022-08-16T04:13:59.187Z,18.60
2022-08-16T04:16:28.908Z,18.60
2022-08-16T04:19:02.159Z,18.60
2022-08-16T04:21:35.865Z,18.50
2022-08-16T04:24:12.931Z,18.50
2022-08-16T04:26:42.582Z,18.50
2022-08-16T04:29:24.423Z,18.50
2022-08-16T04:31:56.671Z,18.50
2022-08-16T04:34:30.630Z,18.40
2022-08-16T04:37:01.271Z,18.50
2022-08-16T04:39:44.843Z,18.50
2022-08-16T04:42:16.136Z,18.50
2022-08-16T04:44:53.547Z,18.50
2022-08-16T04:47:24.623Z,18.50
2022-08-16T04:49:52.305Z,18.50
2022-08-16T04:52:33.381Z,18.50
2022-08-16T04:55:15.366Z,18.40
2022-08-16T04:57:42.888Z,18.40
2022-08-16T05:00:30.393Z,18.40
2022-08-16T05:03:01.262Z,18.30
2022-08-16T05:05:36.730Z,18.30
2022-08-16T05:08:29.582Z,18.30
2022-08-16T05:11:05.478Z,18.30
2022-08-16T05:13:41.694Z,18.30
2022-08-16T05:16:19.922Z,18.30
2022-08-16T05:18:49.107Z,18.30
2022-08-16T05:21:20.931Z,18.30
2022-08-16T05:23:58.391Z,18.30
2022-08-16T05:26:30.528Z,18.30
2022-08-16T05:28:58.123Z,18.40
2022-08-16T05:31:29.348Z,18.40
2022-08-16T05:33:57.772Z,18.40
2022-08-16T05:36:24.830Z,18.50
2022-08-16T05:39:08.761Z,18.50
2022-08-16T05:41:44.994Z,18.60
2022-08-16T05:44:23.415Z,18.60
2022-08-16T05:46:55.102Z,18.60
2022-08-16T05:49:23.355Z,18.60
2022-08-16T05:51:55.609Z,18.70
2022-08-16T05:54:25.639Z,18.70
2022-08-16T05:56:55.836Z,18.70
2022-08-16T05:59:27.756Z,18.80
2022-08-16T06:01:54.407Z,18.80
2022-08-16T06:04:35.294Z,18.90
2022-08-16T06:07:08.172Z,18.90
2022-08-16T06:09:43.858Z,19.00
2022-08-16T06:12:12.617Z,19.10
2022-08-16T06:14:57.179Z,19.10
2022-08-16T06:17:41.176Z,19.20
2022-08-16T06:20:10.783Z,19.30
2022-08-16T06:22:40.479Z,19.40
2022-08-16T06:25:15.180Z,19.70
2022-08-16T06:27:42.052Z,21.50
2022-08-16T06:30:24.354Z,23.30
2022-08-16T06:32:55.593Z,24.80
2022-08-16T06:35:22.381Z,26.00
2022-08-16T06:37:52.854Z,26.90
2022-08-16T06:40:33.388Z,27.80
2022-08-16T06:43:03.207Z,28.60
2022-08-16T06:45:30.345Z,29.30
2022-08-16T06:48:01.720Z,29.90
2022-08-16T06:50:29.273Z,30.50
2022-08-16T06:53:01.027Z,31.10
2022-08-16T06:55:38.153Z,31.50
2022-08-16T07:00:50.110Z,32.40
2022-08-16T07:03:26.756Z,32.70
2022-08-16T07:06:00.127Z,33.00
2022-08-16T07:08:30.014Z,33.20
2022-08-16T07:10:58.827Z,33.30
2022-08-16T07:14:03.754Z,33.20
2022-08-16T07:16:20.582Z,33.10
2022-08-16T07:18:58.887Z,33.00
2022-08-16T07:21:28.184Z,32.60
2022-08-16T07:24:29.601Z,31.90
2022-08-16T07:27:01.017Z,31.20
2022-08-16T07:29:31.516Z,30.50
2022-08-16T07:32:00.596Z,30.10
2022-08-16T07:34:34.952Z,29.90
2022-08-16T07:37:08.478Z,29.70
2022-08-16T07:39:43.254Z,29.40
2022-08-16T07:42:20.243Z,29.30
2022-08-16T07:44:58.024Z,29.20
2022-08-16T07:47:31.440Z,28.50
2022-08-16T07:50:05.494Z,28.10
2022-08-16T07:52:34.175Z,27.90
2022-08-16T07:55:03.516Z,27.70
2022-08-16T07:57:30.257Z,27.50
2022-08-16T07:59:59.451Z,27.40
2022-08-16T08:02:28.137Z,27.20
2022-08-16T08:04:55.739Z,27.20
2022-08-16T08:07:27.651Z,27.10
2022-08-16T08:09:55.839Z,27.00
2022-08-16T08:12:32.565Z,27.10
2022-08-16T08:15:05.958Z,27.10
2022-08-16T08:17:42.033Z,27.10
2022-08-16T08:20:23.921Z,27.10
2022-08-16T08:23:01.157Z,27.20
2022-08-16T08:25:53.401Z,27.20
2022-08-16T08:28:20.004Z,27.20
2022-08-16T08:30:51.867Z,27.40
2022-08-16T08:33:31.513Z,27.50
2022-08-16T08:36:00.680Z,27.40
2022-08-16T08:38:43.747Z,27.30
2022-08-16T08:41:15.231Z,27.40
2022-08-16T08:43:45.280Z,27.30
2022-08-16T08:46:18.457Z,27.30
2022-08-16T08:48:59.685Z,27.40
2022-08-16T08:51:31.865Z,27.50
2022-08-16T08:54:06.856Z,27.60
2022-08-16T08:56:37.629Z,27.70
2022-08-16T08:59:19.795Z,27.70
2022-08-16T09:01:57.907Z,27.70
2022-08-16T09:04:25.940Z,27.50
2022-08-16T09:06:53.827Z,27.60
2022-08-16T09:09:21.599Z,27.70
2022-08-16T09:11:53.690Z,27.80
2022-08-16T09:14:31.641Z,27.70
2022-08-16T09:17:11.323Z,27.40
2022-08-16T09:19:44.518Z,27.40
2022-08-16T09:22:20.134Z,27.60
2022-08-16T09:24:58.072Z,27.70
2022-08-16T09:27:57.311Z,27.80
2022-08-16T09:30:34.229Z,27.90
2022-08-16T09:33:18.335Z,27.70
2022-08-16T09:35:53.706Z,27.70
2022-08-16T09:38:31.811Z,27.80
2022-08-16T09:40:59.873Z,27.90
2022-08-16T09:43:59.177Z,27.90
2022-08-16T09:46:45.065Z,27.90
2022-08-16T09:49:05.609Z,27.90
2022-08-16T09:51:36.915Z,28.00
2022-08-16T09:54:10.773Z,28.00
2022-08-16T09:56:53.300Z,28.00
2022-08-16T09:59:23.730Z,27.90
2022-08-16T10:01:54.849Z,27.90
2022-08-16T10:04:34.276Z,27.90
2022-08-16T10:07:15.384Z,28.00
2022-08-16T10:09:55.371Z,28.00
2022-08-16T10:12:55.613Z,28.10
2022-08-16T10:15:23.945Z,28.10
2022-08-16T10:18:00.267Z,28.10
2022-08-16T10:20:34.575Z,28.10
2022-08-16T10:23:08.380Z,28.10
2022-08-16T10:27:17.826Z,28.20
2022-08-16T10:28:40.054Z,28.20
2022-08-16T10:31:12.030Z,28.30
2022-08-16T10:33:44.289Z,28.30
2022-08-16T10:36:38.550Z,28.20
2022-08-16T10:39:02.049Z,28.30
2022-08-16T10:41:28.801Z,28.30
2022-08-16T10:43:56.517Z,28.30
2022-08-16T10:46:39.107Z,28.20
2022-08-16T10:49:10.233Z,28.20
2022-08-16T10:52:01.186Z,28.30
2022-08-16T10:54:28.415Z,28.30
2022-08-16T10:56:58.484Z,28.40
2022-08-16T10:59:32.709Z,28.40
2022-08-16T11:05:10.967Z,28.50
2022-08-16T11:07:51.920Z,28.50
2022-08-16T11:19:13.149Z,28.50
2022-08-16T11:24:42.301Z,28.40
2022-08-16T11:27:23.696Z,28.40
2022-08-16T11:29:56.487Z,28.50
2022-08-16T11:32:31.621Z,28.50
2022-08-16T11:35:14.765Z,28.60
2022-08-16T11:38:47.141Z,28.70
2022-08-16T11:40:58.156Z,28.80
2022-08-16T11:43:33.292Z,28.80
2022-08-16T11:46:43.561Z,28.80
2022-08-16T11:48:55.651Z,28.90
2022-08-16T11:51:24.769Z,28.90
2022-08-16T11:53:54.537Z,28.90
2022-08-16T11:56:51.982Z,28.80
2022-08-16T11:59:08.988Z,28.70
2022-08-16T12:01:54.927Z,28.70
2022-08-16T12:04:28.756Z,28.70
2022-08-16T12:06:59.384Z,28.80
2022-08-16T12:09:30.314Z,28.70
2022-08-16T12:12:03.184Z,28.60
2022-08-16T12:14:35.425Z,28.50
2022-08-16T12:17:06.377Z,28.40
2022-08-16T12:19:38.235Z,28.60
2022-08-16T12:22:19.339Z,28.70
2022-08-16T12:24:52.018Z,28.80
2022-08-16T12:27:23.961Z,28.80
2022-08-16T12:29:58.689Z,28.80
2022-08-16T12:32:35.892Z,28.80
2022-08-16T12:35:08.557Z,28.80
2022-08-16T12:37:36.069Z,28.80
2022-08-16T12:40:04.203Z,28.80
2022-08-16T12:42:35.379Z,28.70
2022-08-16T12:45:08.048Z,28.60
2022-08-16T12:48:09.901Z,28.50
2022-08-16T12:50:42.773Z,28.40
2022-08-16T12:53:16.242Z,28.50
2022-08-16T12:55:44.803Z,28.50
2022-08-16T12:58:13.870Z,28.60
2022-08-16T13:01:03.799Z,28.60
2022-08-16T13:03:32.223Z,28.60
2022-08-16T13:06:10.321Z,28.70
2022-08-16T13:08:40.075Z,28.80
2022-08-16T13:11:07.857Z,28.80
2022-08-16T13:13:35.372Z,28.90
2022-08-16T13:16:15.933Z,28.90
2022-08-16T13:18:52.662Z,28.90
2022-08-16T13:21:24.358Z,28.80
2022-08-16T13:23:53.529Z,28.80
2022-08-16T13:26:23.463Z,28.90
2022-08-16T13:28:50.884Z,28.90
2022-08-16T13:31:17.630Z,28.90
2022-08-16T13:33:47.284Z,28.90
2022-08-16T13:36:32.233Z,28.90
2022-08-16T13:39:01.483Z,28.90
2022-08-16T13:41:30.729Z,29.00
2022-08-16T13:44:09.194Z,29.00
2022-08-16T13:46:36.951Z,29.00
2022-08-16T13:49:06.836Z,29.10
2022-08-16T13:51:33.761Z,29.10
2022-08-16T13:54:05.741Z,29.20
2022-08-16T13:56:37.771Z,29.20
2022-08-16T13:59:19.465Z,29.30
2022-08-16T14:01:56.656Z,29.30
2022-08-16T14:04:29.924Z,29.40
2022-08-16T14:06:58.555Z,29.40
2022-08-16T14:09:29.999Z,29.50
2022-08-16T14:12:00.880Z,29.60
2022-08-16T14:14:29.818Z,29.60
2022-08-16T14:17:02.167Z,29.70
2022-08-16T14:19:31.979Z,29.70
2022-08-16T14:22:14.492Z,29.70
2022-08-16T14:24:46.800Z,29.80
2022-08-16T14:27:18.803Z,29.80
2022-08-16T14:29:50.800Z,29.80
2022-08-16T14:32:33.734Z,29.70
2022-08-16T14:35:07.706Z,29.70
2022-08-16T14:37:43.203Z,29.60
2022-08-16T14:40:16.404Z,29.50
2022-08-16T14:42:47.823Z,29.40
2022-08-16T14:45:20.003Z,29.40
2022-08-16T14:47:49.652Z,29.40
2022-08-16T14:50:19.813Z,29.30
2022-08-16T14:52:57.346Z,29.30
2022-08-16T14:55:27.352Z,29.30
2022-08-16T14:57:55.539Z,29.30
2022-08-16T15:00:33.968Z,29.30
2022-08-16T15:03:06.290Z,29.30
2022-08-16T15:05:35.542Z,29.40
2022-08-16T15:08:02.687Z,29.40
2022-08-16T15:10:34.968Z,29.40
2022-08-16T15:13:06.796Z,29.50
2022-08-16T15:15:37.049Z,29.50
2022-08-16T15:18:11.805Z,29.50
2022-08-16T15:20:41.838Z,29.50
2022-08-16T15:23:10.208Z,29.60
2022-08-16T15:25:44.763Z,29.60
2022-08-16T15:28:30.475Z,29.60
2022-08-16T15:31:00.187Z,29.70
2022-08-16T15:33:27.878Z,29.70
2022-08-16T15:35:58.503Z,29.70
2022-08-16T15:38:54.935Z,29.70
2022-08-16T15:41:36.292Z,29.70
2022-08-16T15:44:10.379Z,29.70
2022-08-16T15:46:54.768Z,29.70
2022-08-16T15:49:25.073Z,29.80
2022-08-16T15:52:01.098Z,29.70
2022-08-16T15:54:32.762Z,29.80
2022-08-16T15:57:11.051Z,29.80
2022-08-16T15:59:49.004Z,29.80
2022-08-16T16:02:30.551Z,29.70
2022-08-16T16:05:04.309Z,29.70
2022-08-16T16:07:40.683Z,29.70
2022-08-16T16:10:13.044Z,29.60
2022-08-16T16:12:53.988Z,29.60
2022-08-16T16:15:25.166Z,29.60
2022-08-16T16:17:54.675Z,29.60
2022-08-16T16:20:24.525Z,29.60
2022-08-16T16:22:59.437Z,29.60
2022-08-16T16:25:28.152Z,29.60
2022-08-16T16:28:00.213Z,29.60
2022-08-16T16:30:42.978Z,29.50
2022-08-16T16:33:20.892Z,29.50
2022-08-16T16:35:55.680Z,29.50
2022-08-16T16:38:30.491Z,29.50
2022-08-16T16:41:02.826Z,29.50
2022-08-16T16:43:31.443Z,29.50
2022-08-16T16:45:58.732Z,29.40
2022-08-16T16:48:29.515Z,29.40
2022-08-16T16:51:04.242Z,29.40
2022-08-16T16:53:37.735Z,29.40
2022-08-16T16:56:08.894Z,29.40
2022-08-16T16:59:01.130Z,29.40
2022-08-16T17:01:41.425Z,29.30
2022-08-16T17:04:20.640Z,29.30
2022-08-16T17:06:53.429Z,29.20
2022-08-16T17:09:24.662Z,29.10
2022-08-16T17:11:55.566Z,29.10
2022-08-16T17:14:33.660Z,29.10
2022-08-16T17:17:04.054Z,29.00
2022-08-16T17:19:31.517Z,29.00
2022-08-16T17:22:02.437Z,29.00
2022-08-16T17:24:40.033Z,29.00
2022-08-16T17:27:32.461Z,29.00
2022-08-16T17:30:14.802Z,28.90
2022-08-16T17:32:50.643Z,28.90
2022-08-16T17:35:34.190Z,28.90
2022-08-16T17:38:06.317Z,28.90
2022-08-16T17:40:47.662Z,28.90
2022-08-16T17:43:33.436Z,28.90
2022-08-16T17:46:00.838Z,28.80
2022-08-16T17:48:30.888Z,28.80
2022-08-16T17:50:58.713Z,28.70
2022-08-16T17:53:25.996Z,28.70
2022-08-16T17:55:54.575Z,28.70
2022-08-16T17:58:24.104Z,28.70
2022-08-16T18:00:54.810Z,28.70
2022-08-16T18:04:03.119Z,28.60
2022-08-16T18:06:17.881Z,28.60
2022-08-16T18:08:48.822Z,28.50
2022-08-16T18:11:18.158Z,28.50
2022-08-16T18:13:46.552Z,28.40
2022-08-16T18:16:18.559Z,28.40
2022-08-16T18:18:47.889Z,28.40
2022-08-16T18:21:34.213Z,28.40
2022-08-16T18:24:01.163Z,28.30
2022-08-16T18:26:30.221Z,28.30
2022-08-16T18:28:56.964Z,28.20
2022-08-16T18:31:23.701Z,28.20
2022-08-16T18:33:55.661Z,28.10
2022-08-16T18:36:23.448Z,28.10
2022-08-16T18:38:53.510Z,28.10
2022-08-16T18:41:24.721Z,28.10
2022-08-16T18:44:22.346Z,28.00
2022-08-16T18:46:40.950Z,28.00
2022-08-16T18:49:07.938Z,27.90
2022-08-16T18:51:38.126Z,27.90
2022-08-16T18:54:04.999Z,27.80
2022-08-16T18:56:56.155Z,27.80
2022-08-16T18:59:21.137Z,27.80
2022-08-16T19:01:47.866Z,27.70
2022-08-16T19:04:49.013Z,27.60
2022-08-16T19:07:03.664Z,27.40
2022-08-16T19:09:30.399Z,27.20
2022-08-16T19:11:57.398Z,27.10
2022-08-16T19:14:29.910Z,27.00
2022-08-16T19:16:58.854Z,26.90
2022-08-16T19:19:27.753Z,26.90
2022-08-16T19:21:56.917Z,26.80
2022-08-16T19:24:23.622Z,26.80
2022-08-16T19:26:56.121Z,26.80
2022-08-16T19:29:24.410Z,26.80
2022-08-16T19:31:53.253Z,26.70
2022-08-16T19:34:19.984Z,26.70
2022-08-16T19:36:48.922Z,26.70
2022-08-16T19:39:16.434Z,26.50
2022-08-16T19:41:52.114Z,26.50
2022-08-16T19:44:22.295Z,26.40
2022-08-16T19:46:49.527Z,26.30
2022-08-16T19:49:16.980Z,26.20
2022-08-16T19:51:47.959Z,26.10
2022-08-16T19:54:15.104Z,26.10
2022-08-16T19:56:41.905Z,26.10
2022-08-16T19:59:19.744Z,26.00
2022-08-16T20:01:50.997Z,26.00
2022-08-16T20:04:18.457Z,25.90
2022-08-16T20:06:45.282Z,25.90
2022-08-16T20:09:14.781Z,25.80
2022-08-16T20:11:43.050Z,25.80
2022-08-16T20:14:09.829Z,25.70
2022-08-16T20:16:39.768Z,25.70
2022-08-16T20:19:06.832Z,25.60
2022-08-16T20:21:36.398Z,25.60
2022-08-16T20:24:32.728Z,25.60
2022-08-16T20:27:00.186Z,25.50
2022-08-16T20:29:34.631Z,25.50
2022-08-16T20:32:04.348Z,25.40
2022-08-16T20:34:31.278Z,25.40
2022-08-16T20:37:00.679Z,25.30
2022-08-16T20:39:27.582Z,25.30
2022-08-16T20:41:54.294Z,25.20
2022-08-16T20:44:25.193Z,25.20
2022-08-16T20:46:52.551Z,25.10
2022-08-16T20:49:19.254Z,25.10
2022-08-16T20:51:55.878Z,25.00
2022-08-16T20:54:25.881Z,24.90
2022-08-16T20:56:52.821Z,24.90
2022-08-16T20:59:19.754Z,24.80
2022-08-16T21:01:49.789Z,24.80
2022-08-16T21:04:19.072Z,24.70
2022-08-16T21:06:54.226Z,24.70
2022-08-16T21:09:26.449Z,24.60
2022-08-16T21:11:55.236Z,24.60
2022-08-16T21:14:25.004Z,24.60
2022-08-16T21:16:55.144Z,24.50
2022-08-16T21:19:24.394Z,24.50
2022-08-16T21:21:54.138Z,24.50
2022-08-16T21:24:21.072Z,24.40
2022-08-16T21:26:56.087Z,24.30
2022-08-16T21:29:31.634Z,24.30
2022-08-16T21:32:13.449Z,24.20
2022-08-16T21:34:41.272Z,24.20
2022-08-16T21:37:10.552Z,24.10
2022-08-16T21:39:37.433Z,24.10
2022-08-16T21:42:16.268Z,24.10
2022-08-16T21:44:46.049Z,24.00
2022-08-16T21:47:12.803Z,23.90
2022-08-16T21:49:44.637Z,23.90
2022-08-16T21:52:26.803Z,23.90
2022-08-16T21:54:56.161Z,23.90
2022-08-16T21:57:23.801Z,23.80
2022-08-16T21:59:51.978Z,23.80
2022-08-16T22:02:23.584Z,23.70
2022-08-16T22:04:51.548Z,23.70
2022-08-16T22:07:18.568Z,23.60
2022-08-16T22:09:46.783Z,23.60
2022-08-16T22:12:24.409Z,23.50
2022-08-16T22:14:51.216Z,23.40
2022-08-16T22:17:18.029Z,23.40
2022-08-16T22:19:49.361Z,23.40
2022-08-16T22:22:18.866Z,23.30
2022-08-16T22:24:48.494Z,23.20
2022-08-16T22:27:17.682Z,23.10
2022-08-16T22:29:46.618Z,23.10
2022-08-16T22:32:16.224Z,23.10
2022-08-16T22:34:45.472Z,23.10
2022-08-16T22:37:12.311Z,23.00
2022-08-16T22:39:39.011Z,23.00
2022-08-16T22:42:09.339Z,22.90
2022-08-16T22:44:37.161Z,22.90
2022-08-16T22:47:06.185Z,22.80
2022-08-16T22:49:35.233Z,22.80
2022-08-16T22:52:09.521Z,22.80
2022-08-16T22:54:47.637Z,22.70
2022-08-16T22:57:20.252Z,22.70
2022-08-16T22:59:47.063Z,22.60
2022-08-16T23:02:19.320Z,22.60
2022-08-16T23:04:48.300Z,22.60
2022-08-16T23:07:17.573Z,22.50
2022-08-16T23:09:44.446Z,22.40
2022-08-16T23:12:15.025Z,22.40
2022-08-16T23:14:43.122Z,22.30
2022-08-16T23:17:12.077Z,22.30
2022-08-16T23:19:38.835Z,22.30
2022-08-16T23:22:05.979Z,22.20
2022-08-16T23:24:36.959Z,22.20
2022-08-16T23:27:07.430Z,22.10
2022-08-16T23:29:34.131Z,22.10
2022-08-16T23:32:11.016Z,22.10
2022-08-16T23:34:45.091Z,22.00
2022-08-16T23:37:11.756Z,22.00
2022-08-16T23:39:38.634Z,21.90
2022-08-16T23:42:15.341Z,21.90
2022-08-16T23:45:04.902Z,21.80
2022-08-16T23:47:36.083Z,21.80
2022-08-16T23:50:05.695Z,21.80
2022-08-16T23:52:53.335Z,21.70
2022-08-16T23:55:19.187Z,21.70
2022-08-16T23:57:46.360Z,21.70
